sensor_id;sensor_type;location;lat;lon;timestamp;P1;durP1;ratioP1;P2;durP2;ratioP2
54937;SDS011;52756;52.826;6.214;2022-09-09T00:04:35;4.45;;;2.50;;
54937;SDS011;52756;52.826;6.214;2022-09-09T00:07:23;4.40;;;2.83;;
54937;SDS011;52756;52.826;6.214;2022-09-09T00:12:51;3.30;;;2.47;;
54937;SDS011;52756;52.826;6.214;2022-09-09T00:15:36;4.75;;;2.63;;
54937;SDS011;52756;52.826;6.214;2022-09-09T00:20:45;4.70;;;3.50;;
54937;SDS011;52756;52.826;6.214;2022-09-09T00:23:30;3.05;;;2.63;;
54937;SDS011;52756;52.826;6.214;2022-09-09T00:26:01;6.15;;;4.10;;
54937;SDS011;52756;52.826;6.214;2022-09-09T00:28:39;8.40;;;4.82;;
54937;SDS011;52756;52.826;6.214;2022-09-09T00:31:20;4.07;;;3.67;;
54937;SDS011;52756;52.826;6.214;2022-09-09T00:33:52;4.43;;;3.70;;
54937;SDS011;52756;52.826;6.214;2022-09-09T00:36:21;7.88;;;4.97;;
54937;SDS011;52756;52.826;6.214;2022-09-09T00:38:57;6.13;;;4.10;;
54937;SDS011;52756;52.826;6.214;2022-09-09T00:44:34;8.93;;;6.45;;
54937;SDS011;52756;52.826;6.214;2022-09-09T00:52:40;7.63;;;5.35;;
54937;SDS011;52756;52.826;6.214;2022-09-09T00:57:57;10.27;;;6.60;;
54937;SDS011;52756;52.826;6.214;2022-09-09T01:00:27;6.07;;;4.57;;
54937;SDS011;52756;52.826;6.214;2022-09-09T01:07:58;6.63;;;5.97;;
54937;SDS011;52756;52.826;6.214;2022-09-09T01:10:35;8.52;;;5.90;;
54937;SDS011;52756;52.826;6.214;2022-09-09T01:13:04;7.10;;;6.30;;
54937;SDS011;52756;52.826;6.214;2022-09-09T01:15:38;10.23;;;6.32;;
54937;SDS011;52756;52.826;6.214;2022-09-09T01:18:08;6.72;;;5.60;;
54937;SDS011;52756;52.826;6.214;2022-09-09T01:20:39;9.82;;;7.00;;
54937;SDS011;52756;52.826;6.214;2022-09-09T01:23:35;7.47;;;6.70;;
54937;SDS011;52756;52.826;6.214;2022-09-09T01:28:48;11.23;;;7.07;;
54937;SDS011;52756;52.826;6.214;2022-09-09T01:31:19;8.13;;;7.30;;
54937;SDS011;52756;52.826;6.214;2022-09-09T01:33:47;10.93;;;8.57;;
54937;SDS011;52756;52.826;6.214;2022-09-09T01:38:42;10.35;;;7.40;;
54937;SDS011;52756;52.826;6.214;2022-09-09T01:41:08;9.90;;;8.02;;
54937;SDS011;52756;52.826;6.214;2022-09-09T01:43:34;10.70;;;7.35;;
54937;SDS011;52756;52.826;6.214;2022-09-09T01:46:01;14.02;;;9.13;;
54937;SDS011;52756;52.826;6.214;2022-09-09T01:48:27;8.82;;;7.93;;
54937;SDS011;52756;52.826;6.214;2022-09-09T01:50:54;8.57;;;7.68;;
54937;SDS011;52756;52.826;6.214;2022-09-09T01:53:20;8.98;;;7.72;;
54937;SDS011;52756;52.826;6.214;2022-09-09T02:01:15;10.98;;;7.85;;
54937;SDS011;52756;52.826;6.214;2022-09-09T02:03:53;9.13;;;7.55;;
54937;SDS011;52756;52.826;6.214;2022-09-09T02:08:52;8.98;;;7.40;;
54937;SDS011;52756;52.826;6.214;2022-09-09T02:11:23;10.43;;;7.60;;
54937;SDS011;52756;52.826;6.214;2022-09-09T02:13:55;8.63;;;6.72;;
54937;SDS011;52756;52.826;6.214;2022-09-09T02:19:21;10.55;;;7.15;;
54937;SDS011;52756;52.826;6.214;2022-09-09T02:21:53;10.32;;;7.15;;
54937;SDS011;52756;52.826;6.214;2022-09-09T02:24:21;6.65;;;5.88;;
54937;SDS011;52756;52.826;6.214;2022-09-09T02:26:48;10.43;;;6.80;;
54937;SDS011;52756;52.826;6.214;2022-09-09T02:29:27;10.95;;;6.10;;
54937;SDS011;52756;52.826;6.214;2022-09-09T02:31:57;8.82;;;6.40;;
54937;SDS011;52756;52.826;6.214;2022-09-09T02:34:28;11.85;;;7.45;;
54937;SDS011;52756;52.826;6.214;2022-09-09T02:36:55;11.43;;;7.40;;
54937;SDS011;52756;52.826;6.214;2022-09-09T02:39:24;9.80;;;7.10;;
54937;SDS011;52756;52.826;6.214;2022-09-09T02:41:50;7.78;;;6.97;;
54937;SDS011;52756;52.826;6.214;2022-09-09T02:44:17;6.65;;;5.28;;
54937;SDS011;52756;52.826;6.214;2022-09-09T02:49:35;7.70;;;6.82;;
54937;SDS011;52756;52.826;6.214;2022-09-09T02:52:33;7.03;;;5.30;;
54937;SDS011;52756;52.826;6.214;2022-09-09T02:57:52;9.40;;;7.40;;
54937;SDS011;52756;52.826;6.214;2022-09-09T03:00:25;7.90;;;5.75;;
54937;SDS011;52756;52.826;6.214;2022-09-09T03:02:52;10.20;;;6.80;;
54937;SDS011;52756;52.826;6.214;2022-09-09T03:05:19;9.07;;;6.78;;
54937;SDS011;52756;52.826;6.214;2022-09-09T03:07:46;10.38;;;6.57;;
54937;SDS011;52756;52.826;6.214;2022-09-09T03:10:12;10.38;;;7.38;;
54937;SDS011;52756;52.826;6.214;2022-09-09T03:12:38;10.02;;;6.68;;
54937;SDS011;52756;52.826;6.214;2022-09-09T03:15:05;10.55;;;7.00;;
54937;SDS011;52756;52.826;6.214;2022-09-09T03:17:31;10.38;;;6.40;;
54937;SDS011;52756;52.826;6.214;2022-09-09T03:19:57;8.80;;;7.15;;
54937;SDS011;52756;52.826;6.214;2022-09-09T03:22:23;7.70;;;6.60;;
54937;SDS011;52756;52.826;6.214;2022-09-09T03:24:50;9.57;;;6.65;;
54937;SDS011;52756;52.826;6.214;2022-09-09T03:27:17;8.90;;;6.28;;
54937;SDS011;52756;52.826;6.214;2022-09-09T03:29:44;7.38;;;6.32;;
54937;SDS011;52756;52.826;6.214;2022-09-09T03:32:11;13.73;;;6.78;;
54937;SDS011;52756;52.826;6.214;2022-09-09T03:34:37;8.45;;;6.82;;
54937;SDS011;52756;52.826;6.214;2022-09-09T03:37:05;9.70;;;6.05;;
54937;SDS011;52756;52.826;6.214;2022-09-09T03:39:31;7.93;;;6.45;;
54937;SDS011;52756;52.826;6.214;2022-09-09T03:41:57;7.68;;;6.07;;
54937;SDS011;52756;52.826;6.214;2022-09-09T03:44:22;9.75;;;6.65;;
54937;SDS011;52756;52.826;6.214;2022-09-09T03:46:48;8.10;;;7.03;;
54937;SDS011;52756;52.826;6.214;2022-09-09T03:49:14;8.23;;;6.55;;
54937;SDS011;52756;52.826;6.214;2022-09-09T03:51:40;8.85;;;6.15;;
54937;SDS011;52756;52.826;6.214;2022-09-09T03:54:06;7.82;;;6.22;;
54937;SDS011;52756;52.826;6.214;2022-09-09T03:56:35;7.65;;;6.88;;
54937;SDS011;52756;52.826;6.214;2022-09-09T03:59:01;8.45;;;6.45;;
54937;SDS011;52756;52.826;6.214;2022-09-09T04:01:27;9.68;;;6.70;;
54937;SDS011;52756;52.826;6.214;2022-09-09T04:03:54;6.13;;;5.18;;
54937;SDS011;52756;52.826;6.214;2022-09-09T04:06:23;9.73;;;6.63;;
54937;SDS011;52756;52.826;6.214;2022-09-09T04:08:49;5.90;;;5.30;;
54937;SDS011;52756;52.826;6.214;2022-09-09T04:11:17;8.50;;;6.40;;
54937;SDS011;52756;52.826;6.214;2022-09-09T04:13:43;7.78;;;6.22;;
54937;SDS011;52756;52.826;6.214;2022-09-09T04:16:09;7.68;;;5.97;;
54937;SDS011;52756;52.826;6.214;2022-09-09T04:18:36;6.80;;;5.85;;
54937;SDS011;52756;52.826;6.214;2022-09-09T04:21:02;6.45;;;5.72;;
54937;SDS011;52756;52.826;6.214;2022-09-09T04:23:29;7.72;;;5.30;;
54937;SDS011;52756;52.826;6.214;2022-09-09T04:25:55;8.45;;;6.40;;
54937;SDS011;52756;52.826;6.214;2022-09-09T04:28:23;8.77;;;6.28;;
54937;SDS011;52756;52.826;6.214;2022-09-09T04:30:51;6.47;;;5.70;;
54937;SDS011;52756;52.826;6.214;2022-09-09T04:33:17;8.20;;;6.00;;
54937;SDS011;52756;52.826;6.214;2022-09-09T04:35:47;9.25;;;6.43;;
54937;SDS011;52756;52.826;6.214;2022-09-09T04:38:14;7.80;;;6.63;;
54937;SDS011;52756;52.826;6.214;2022-09-09T04:40:42;11.20;;;6.60;;
54937;SDS011;52756;52.826;6.214;2022-09-09T04:43:09;9.32;;;5.97;;
54937;SDS011;52756;52.826;6.214;2022-09-09T04:45:35;8.73;;;5.88;;
54937;SDS011;52756;52.826;6.214;2022-09-09T04:48:01;8.50;;;6.43;;
54937;SDS011;52756;52.826;6.214;2022-09-09T04:50:27;10.25;;;7.57;;
54937;SDS011;52756;52.826;6.214;2022-09-09T04:52:53;11.35;;;7.75;;
54937;SDS011;52756;52.826;6.214;2022-09-09T04:55:19;11.00;;;7.78;;
54937;SDS011;52756;52.826;6.214;2022-09-09T04:57:45;9.73;;;8.13;;
54937;SDS011;52756;52.826;6.214;2022-09-09T05:00:11;8.98;;;8.07;;
54937;SDS011;52756;52.826;6.214;2022-09-09T05:02:38;10.13;;;9.07;;
54937;SDS011;52756;52.826;6.214;2022-09-09T05:05:04;12.23;;;9.88;;
54937;SDS011;52756;52.826;6.214;2022-09-09T05:07:31;11.27;;;9.63;;
54937;SDS011;52756;52.826;6.214;2022-09-09T05:09:57;14.18;;;10.38;;
54937;SDS011;52756;52.826;6.214;2022-09-09T05:12:23;8.88;;;7.97;;
54937;SDS011;52756;52.826;6.214;2022-09-09T05:14:50;11.95;;;9.65;;
54937;SDS011;52756;52.826;6.214;2022-09-09T05:17:16;10.95;;;9.80;;
54937;SDS011;52756;52.826;6.214;2022-09-09T05:19:43;12.25;;;9.70;;
54937;SDS011;52756;52.826;6.214;2022-09-09T05:22:09;12.57;;;9.70;;
54937;SDS011;52756;52.826;6.214;2022-09-09T05:24:36;12.20;;;10.32;;
54937;SDS011;52756;52.826;6.214;2022-09-09T05:27:03;11.13;;;9.85;;
54937;SDS011;52756;52.826;6.214;2022-09-09T05:29:31;9.90;;;8.90;;
54937;SDS011;52756;52.826;6.214;2022-09-09T05:31:58;12.73;;;9.65;;
54937;SDS011;52756;52.826;6.214;2022-09-09T05:34:24;10.63;;;8.70;;
54937;SDS011;52756;52.826;6.214;2022-09-09T05:36:50;11.10;;;8.77;;
54937;SDS011;52756;52.826;6.214;2022-09-09T05:39:17;10.48;;;9.02;;
54937;SDS011;52756;52.826;6.214;2022-09-09T05:41:43;9.98;;;8.48;;
54937;SDS011;52756;52.826;6.214;2022-09-09T05:44:09;12.32;;;8.60;;
54937;SDS011;52756;52.826;6.214;2022-09-09T05:46:34;10.00;;;8.85;;
54937;SDS011;52756;52.826;6.214;2022-09-09T05:49:01;11.88;;;8.38;;
54937;SDS011;52756;52.826;6.214;2022-09-09T05:51:27;9.88;;;8.07;;
54937;SDS011;52756;52.826;6.214;2022-09-09T05:53:55;10.15;;;8.65;;
54937;SDS011;52756;52.826;6.214;2022-09-09T05:56:24;9.93;;;8.00;;
54937;SDS011;52756;52.826;6.214;2022-09-09T05:58:52;9.85;;;7.78;;
54937;SDS011;52756;52.826;6.214;2022-09-09T06:01:25;11.00;;;8.85;;
54937;SDS011;52756;52.826;6.214;2022-09-09T06:03:56;10.73;;;8.52;;
54937;SDS011;52756;52.826;6.214;2022-09-09T06:06:23;10.77;;;8.93;;
54937;SDS011;52756;52.826;6.214;2022-09-09T06:08:51;8.65;;;7.47;;
54937;SDS011;52756;52.826;6.214;2022-09-09T06:11:19;8.40;;;7.35;;
54937;SDS011;52756;52.826;6.214;2022-09-09T06:13:47;9.77;;;7.30;;
54937;SDS011;52756;52.826;6.214;2022-09-09T06:16:17;9.00;;;7.30;;
54937;SDS011;52756;52.826;6.214;2022-09-09T06:18:44;12.07;;;7.65;;
54937;SDS011;52756;52.826;6.214;2022-09-09T06:21:30;8.93;;;7.53;;
54937;SDS011;52756;52.826;6.214;2022-09-09T06:23:58;10.48;;;8.57;;
54937;SDS011;52756;52.826;6.214;2022-09-09T06:26:25;10.80;;;8.52;;
54937;SDS011;52756;52.826;6.214;2022-09-09T06:28:53;10.18;;;7.93;;
54937;SDS011;52756;52.826;6.214;2022-09-09T06:31:20;9.98;;;7.57;;
54937;SDS011;52756;52.826;6.214;2022-09-09T06:33:48;10.00;;;7.88;;
54937;SDS011;52756;52.826;6.214;2022-09-09T06:36:19;8.73;;;7.65;;
54937;SDS011;52756;52.826;6.214;2022-09-09T06:38:47;9.25;;;7.82;;
54937;SDS011;52756;52.826;6.214;2022-09-09T06:41:13;10.35;;;7.88;;
54937;SDS011;52756;52.826;6.214;2022-09-09T06:43:41;8.88;;;7.70;;
54937;SDS011;52756;52.826;6.214;2022-09-09T06:46:08;10.27;;;8.15;;
54937;SDS011;52756;52.826;6.214;2022-09-09T06:48:36;9.80;;;8.30;;
54937;SDS011;52756;52.826;6.214;2022-09-09T06:51:07;11.13;;;7.70;;
54937;SDS011;52756;52.826;6.214;2022-09-09T06:53:36;10.10;;;7.72;;
54937;SDS011;52756;52.826;6.214;2022-09-09T06:58:34;12.25;;;7.93;;
54937;SDS011;52756;52.826;6.214;2022-09-09T07:01:04;8.32;;;7.35;;
54937;SDS011;52756;52.826;6.214;2022-09-09T07:03:31;9.38;;;7.80;;
54937;SDS011;52756;52.826;6.214;2022-09-09T07:05:57;14.30;;;7.70;;
54937;SDS011;52756;52.826;6.214;2022-09-09T07:08:24;9.52;;;6.85;;
54937;SDS011;52756;52.826;6.214;2022-09-09T07:10:50;11.30;;;8.68;;
54937;SDS011;52756;52.826;6.214;2022-09-09T07:13:19;9.85;;;7.47;;
54937;SDS011;52756;52.826;6.214;2022-09-09T07:15:50;9.80;;;7.28;;
54937;SDS011;52756;52.826;6.214;2022-09-09T07:18:16;9.23;;;6.72;;
54937;SDS011;52756;52.826;6.214;2022-09-09T07:20:42;8.43;;;5.97;;
54937;SDS011;52756;52.826;6.214;2022-09-09T07:23:08;10.05;;;7.25;;
54937;SDS011;52756;52.826;6.214;2022-09-09T07:25:33;9.93;;;7.18;;
54937;SDS011;52756;52.826;6.214;2022-09-09T07:27:59;11.00;;;6.22;;
54937;SDS011;52756;52.826;6.214;2022-09-09T07:30:25;11.45;;;7.00;;
54937;SDS011;52756;52.826;6.214;2022-09-09T07:32:51;7.93;;;6.40;;
54937;SDS011;52756;52.826;6.214;2022-09-09T07:35:17;12.50;;;6.72;;
54937;SDS011;52756;52.826;6.214;2022-09-09T07:37:43;9.68;;;6.35;;
54937;SDS011;52756;52.826;6.214;2022-09-09T07:40:10;11.23;;;6.30;;
54937;SDS011;52756;52.826;6.214;2022-09-09T07:42:35;11.25;;;6.10;;
54937;SDS011;52756;52.826;6.214;2022-09-09T07:45:02;8.18;;;5.60;;
54937;SDS011;52756;52.826;6.214;2022-09-09T07:47:29;8.00;;;5.30;;
54937;SDS011;52756;52.826;6.214;2022-09-09T07:49:55;7.50;;;5.25;;
54937;SDS011;52756;52.826;6.214;2022-09-09T07:52:21;12.93;;;6.38;;
54937;SDS011;52756;52.826;6.214;2022-09-09T07:54:46;9.10;;;5.10;;
54937;SDS011;52756;52.826;6.214;2022-09-09T07:57:12;6.95;;;5.07;;
54937;SDS011;52756;52.826;6.214;2022-09-09T07:59:38;9.05;;;5.13;;
54937;SDS011;52756;52.826;6.214;2022-09-09T08:02:04;8.23;;;5.07;;
54937;SDS011;52756;52.826;6.214;2022-09-09T08:04:30;9.95;;;5.20;;
54937;SDS011;52756;52.826;6.214;2022-09-09T08:06:57;10.73;;;4.95;;
54937;SDS011;52756;52.826;6.214;2022-09-09T08:09:25;7.93;;;4.47;;
54937;SDS011;52756;52.826;6.214;2022-09-09T08:11:57;8.02;;;4.63;;
54937;SDS011;52756;52.826;6.214;2022-09-09T08:14:23;9.60;;;5.05;;
54937;SDS011;52756;52.826;6.214;2022-09-09T08:16:49;6.03;;;3.42;;
54937;SDS011;52756;52.826;6.214;2022-09-09T08:19:15;8.30;;;3.50;;
54937;SDS011;52756;52.826;6.214;2022-09-09T08:21:41;9.25;;;3.83;;
54937;SDS011;52756;52.826;6.214;2022-09-09T08:24:09;6.05;;;3.80;;
54937;SDS011;52756;52.826;6.214;2022-09-09T08:26:40;6.85;;;3.53;;
54937;SDS011;52756;52.826;6.214;2022-09-09T08:29:08;5.18;;;3.28;;
54937;SDS011;52756;52.826;6.214;2022-09-09T08:31:39;5.65;;;3.35;;
54937;SDS011;52756;52.826;6.214;2022-09-09T08:34:10;7.22;;;3.90;;
54937;SDS011;52756;52.826;6.214;2022-09-09T08:36:37;6.35;;;3.30;;
54937;SDS011;52756;52.826;6.214;2022-09-09T08:39:06;5.03;;;2.70;;
54937;SDS011;52756;52.826;6.214;2022-09-09T08:44:14;11.20;;;3.70;;
54937;SDS011;52756;52.826;6.214;2022-09-09T08:47:00;8.60;;;3.65;;
54937;SDS011;52756;52.826;6.214;2022-09-09T09:09:01;9.82;;;3.53;;
54937;SDS011;52756;52.826;6.214;2022-09-09T09:11:35;9.25;;;3.25;;
54937;SDS011;52756;52.826;6.214;2022-09-09T09:14:15;7.40;;;2.80;;
54937;SDS011;52756;52.826;6.214;2022-09-09T09:19:16;7.03;;;2.75;;
54937;SDS011;52756;52.826;6.214;2022-09-09T09:21:51;7.13;;;2.65;;
54937;SDS011;52756;52.826;6.214;2022-09-09T09:24:27;8.98;;;3.15;;
54937;SDS011;52756;52.826;6.214;2022-09-09T09:27:07;8.95;;;2.72;;
54937;SDS011;52756;52.826;6.214;2022-09-09T09:29:39;6.45;;;2.50;;
54937;SDS011;52756;52.826;6.214;2022-09-09T09:32:07;8.30;;;3.00;;
54937;SDS011;52756;52.826;6.214;2022-09-09T09:34:39;6.72;;;2.50;;
54937;SDS011;52756;52.826;6.214;2022-09-09T09:37:12;10.50;;;2.40;;
54937;SDS011;52756;52.826;6.214;2022-09-09T09:39:44;6.18;;;2.58;;
54937;SDS011;52756;52.826;6.214;2022-09-09T09:42:14;5.57;;;2.20;;
54937;SDS011;52756;52.826;6.214;2022-09-09T09:44:42;7.00;;;2.03;;
54937;SDS011;52756;52.826;6.214;2022-09-09T09:49:37;6.18;;;2.25;;
54937;SDS011;52756;52.826;6.214;2022-09-09T09:52:04;6.63;;;1.98;;
54937;SDS011;52756;52.826;6.214;2022-09-09T09:54:37;14.48;;;2.50;;
54937;SDS011;52756;52.826;6.214;2022-09-09T09:57:46;5.80;;;2.07;;
54937;SDS011;52756;52.826;6.214;2022-09-09T10:02:40;6.50;;;2.17;;
54937;SDS011;52756;52.826;6.214;2022-09-09T10:05:18;5.93;;;1.92;;
54937;SDS011;52756;52.826;6.214;2022-09-09T10:18:51;6.90;;;1.50;;
54937;SDS011;52756;52.826;6.214;2022-09-09T10:26:59;6.90;;;1.55;;
54937;SDS011;52756;52.826;6.214;2022-09-09T10:38:41;7.07;;;1.77;;
54937;SDS011;52756;52.826;6.214;2022-09-09T10:55:41;4.40;;;1.63;;
54937;SDS011;52756;52.826;6.214;2022-09-09T10:58:11;7.85;;;2.72;;
54937;SDS011;52756;52.826;6.214;2022-09-09T11:00:47;7.90;;;1.88;;
54937;SDS011;52756;52.826;6.214;2022-09-09T11:03:37;7.18;;;1.80;;
54937;SDS011;52756;52.826;6.214;2022-09-09T11:06:07;5.70;;;1.67;;
54937;SDS011;52756;52.826;6.214;2022-09-09T11:08:42;6.57;;;1.90;;
54937;SDS011;52756;52.826;6.214;2022-09-09T11:11:13;7.20;;;1.80;;
54937;SDS011;52756;52.826;6.214;2022-09-09T11:16:39;10.15;;;2.60;;
54937;SDS011;52756;52.826;6.214;2022-09-09T11:22:07;4.43;;;1.42;;
54937;SDS011;52756;52.826;6.214;2022-09-09T11:24:53;8.32;;;1.70;;
54937;SDS011;52756;52.826;6.214;2022-09-09T11:33:04;10.93;;;2.08;;
54937;SDS011;52756;52.826;6.214;2022-09-09T11:38:28;5.65;;;1.90;;
54937;SDS011;52756;52.826;6.214;2022-09-09T11:41:03;7.55;;;2.15;;
54937;SDS011;52756;52.826;6.214;2022-09-09T11:43:39;5.85;;;1.58;;
54937;SDS011;52756;52.826;6.214;2022-09-09T11:46:06;8.50;;;2.10;;
54937;SDS011;52756;52.826;6.214;2022-09-09T11:48:34;5.22;;;1.50;;
54937;SDS011;52756;52.826;6.214;2022-09-09T11:51:09;8.73;;;2.00;;
54937;SDS011;52756;52.826;6.214;2022-09-09T11:53:59;6.28;;;1.63;;
54937;SDS011;52756;52.826;6.214;2022-09-09T11:58:57;4.68;;;1.45;;
54937;SDS011;52756;52.826;6.214;2022-09-09T12:01:34;6.13;;;1.65;;
54937;SDS011;52756;52.826;6.214;2022-09-09T12:04:11;7.10;;;1.40;;
54937;SDS011;52756;52.826;6.214;2022-09-09T12:12:23;6.10;;;1.88;;
54937;SDS011;52756;52.826;6.214;2022-09-09T12:14:55;7.18;;;2.25;;
54937;SDS011;52756;52.826;6.214;2022-09-09T12:17:25;6.00;;;1.45;;
54937;SDS011;52756;52.826;6.214;2022-09-09T12:20:03;7.55;;;1.67;;
54937;SDS011;52756;52.826;6.214;2022-09-09T12:33:34;5.32;;;1.67;;
54937;SDS011;52756;52.826;6.214;2022-09-09T12:36:02;5.80;;;1.80;;
54937;SDS011;52756;52.826;6.214;2022-09-09T12:38:39;4.07;;;1.60;;
54937;SDS011;52756;52.826;6.214;2022-09-09T12:41:06;6.30;;;1.75;;
54937;SDS011;52756;52.826;6.214;2022-09-09T12:43:47;4.22;;;1.75;;
54937;SDS011;52756;52.826;6.214;2022-09-09T12:46:20;5.32;;;1.88;;
54937;SDS011;52756;52.826;6.214;2022-09-09T12:48:58;4.95;;;1.50;;
54937;SDS011;52756;52.826;6.214;2022-09-09T12:51:28;5.57;;;1.38;;
54937;SDS011;52756;52.826;6.214;2022-09-09T12:53:56;4.80;;;1.50;;
54937;SDS011;52756;52.826;6.214;2022-09-09T12:56:27;7.15;;;1.40;;
54937;SDS011;52756;52.826;6.214;2022-09-09T12:58:56;4.85;;;1.67;;
54937;SDS011;52756;52.826;6.214;2022-09-09T13:03:53;8.68;;;1.50;;
54937;SDS011;52756;52.826;6.214;2022-09-09T13:06:29;7.25;;;1.92;;
54937;SDS011;52756;52.826;6.214;2022-09-09T13:08:59;4.53;;;1.85;;
54937;SDS011;52756;52.826;6.214;2022-09-09T13:11:27;3.55;;;1.10;;
54937;SDS011;52756;52.826;6.214;2022-09-09T13:13:56;4.72;;;1.65;;
54937;SDS011;52756;52.826;6.214;2022-09-09T13:16:25;4.10;;;1.02;;
54937;SDS011;52756;52.826;6.214;2022-09-09T13:19:09;3.63;;;0.95;;
54937;SDS011;52756;52.826;6.214;2022-09-09T13:21:40;4.85;;;1.20;;
54937;SDS011;52756;52.826;6.214;2022-09-09T13:24:06;4.32;;;1.30;;
54937;SDS011;52756;52.826;6.214;2022-09-09T13:26:58;4.30;;;1.33;;
54937;SDS011;52756;52.826;6.214;2022-09-09T13:29:27;6.50;;;1.65;;
54937;SDS011;52756;52.826;6.214;2022-09-09T13:31:53;4.45;;;1.00;;
54937;SDS011;52756;52.826;6.214;2022-09-09T13:37:04;4.07;;;1.10;;
54937;SDS011;52756;52.826;6.214;2022-09-09T13:39:35;2.53;;;1.05;;
54937;SDS011;52756;52.826;6.214;2022-09-09T13:42:03;3.38;;;1.13;;
54937;SDS011;52756;52.826;6.214;2022-09-09T13:44:34;3.65;;;1.27;;
54937;SDS011;52756;52.826;6.214;2022-09-09T13:47:31;3.42;;;1.42;;
54937;SDS011;52756;52.826;6.214;2022-09-09T13:50:09;4.30;;;1.90;;
54937;SDS011;52756;52.826;6.214;2022-09-09T13:52:49;6.70;;;2.15;;
54937;SDS011;52756;52.826;6.214;2022-09-09T13:55:19;4.40;;;1.83;;
54937;SDS011;52756;52.826;6.214;2022-09-09T13:57:53;6.22;;;1.98;;
54937;SDS011;52756;52.826;6.214;2022-09-09T14:00:20;6.85;;;2.20;;
54937;SDS011;52756;52.826;6.214;2022-09-09T14:02:47;5.38;;;2.88;;
54937;SDS011;52756;52.826;6.214;2022-09-09T14:05:13;3.13;;;1.70;;
54937;SDS011;52756;52.826;6.214;2022-09-09T14:07:41;3.45;;;1.60;;
54937;SDS011;52756;52.826;6.214;2022-09-09T14:10:08;6.65;;;1.45;;
54937;SDS011;52756;52.826;6.214;2022-09-09T14:12:34;4.60;;;1.27;;
54937;SDS011;52756;52.826;6.214;2022-09-09T14:15:01;4.40;;;1.98;;
54937;SDS011;52756;52.826;6.214;2022-09-09T14:17:27;4.60;;;1.30;;
54937;SDS011;52756;52.826;6.214;2022-09-09T14:19:56;2.40;;;0.98;;
54937;SDS011;52756;52.826;6.214;2022-09-09T14:22:22;2.83;;;1.00;;
54937;SDS011;52756;52.826;6.214;2022-09-09T14:24:49;3.95;;;1.17;;
54937;SDS011;52756;52.826;6.214;2022-09-09T14:27:16;5.32;;;1.35;;
54937;SDS011;52756;52.826;6.214;2022-09-09T14:29:42;3.97;;;1.17;;
54937;SDS011;52756;52.826;6.214;2022-09-09T14:32:09;4.03;;;1.20;;
54937;SDS011;52756;52.826;6.214;2022-09-09T14:34:35;3.42;;;1.13;;
54937;SDS011;52756;52.826;6.214;2022-09-09T14:37:01;2.95;;;1.20;;
54937;SDS011;52756;52.826;6.214;2022-09-09T14:39:27;3.90;;;1.38;;
54937;SDS011;52756;52.826;6.214;2022-09-09T14:41:53;3.15;;;1.13;;
54937;SDS011;52756;52.826;6.214;2022-09-09T14:44:18;2.08;;;1.08;;
54937;SDS011;52756;52.826;6.214;2022-09-09T14:46:44;3.58;;;1.17;;
54937;SDS011;52756;52.826;6.214;2022-09-09T14:49:10;5.43;;;1.60;;
54937;SDS011;52756;52.826;6.214;2022-09-09T14:51:37;3.78;;;1.40;;
54937;SDS011;52756;52.826;6.214;2022-09-09T14:54:04;3.90;;;1.17;;
54937;SDS011;52756;52.826;6.214;2022-09-09T14:56:31;4.25;;;1.15;;
54937;SDS011;52756;52.826;6.214;2022-09-09T14:58:59;3.10;;;1.10;;
54937;SDS011;52756;52.826;6.214;2022-09-09T15:01:28;5.45;;;1.17;;
54937;SDS011;52756;52.826;6.214;2022-09-09T15:03:56;3.05;;;0.98;;
54937;SDS011;52756;52.826;6.214;2022-09-09T15:06:27;3.15;;;1.10;;
54937;SDS011;52756;52.826;6.214;2022-09-09T15:08:55;2.80;;;0.95;;
54937;SDS011;52756;52.826;6.214;2022-09-09T15:11:25;3.95;;;1.05;;
54937;SDS011;52756;52.826;6.214;2022-09-09T15:13:55;3.08;;;1.17;;
54937;SDS011;52756;52.826;6.214;2022-09-09T15:16:23;6.45;;;2.15;;
54937;SDS011;52756;52.826;6.214;2022-09-09T15:18:51;5.30;;;1.33;;
54937;SDS011;52756;52.826;6.214;2022-09-09T15:21:20;4.18;;;1.33;;
54937;SDS011;52756;52.826;6.214;2022-09-09T15:23:48;3.53;;;1.58;;
54937;SDS011;52756;52.826;6.214;2022-09-09T15:26:14;3.80;;;1.50;;
54937;SDS011;52756;52.826;6.214;2022-09-09T15:28:41;3.83;;;1.33;;
54937;SDS011;52756;52.826;6.214;2022-09-09T15:31:30;2.55;;;1.13;;
54937;SDS011;52756;52.826;6.214;2022-09-09T15:33:56;5.53;;;2.33;;
54937;SDS011;52756;52.826;6.214;2022-09-09T15:38:54;4.30;;;1.30;;
54937;SDS011;52756;52.826;6.214;2022-09-09T15:41:21;3.53;;;1.40;;
54937;SDS011;52756;52.826;6.214;2022-09-09T15:43:48;4.13;;;1.17;;
54937;SDS011;52756;52.826;6.214;2022-09-09T15:49:12;4.03;;;1.20;;
54937;SDS011;52756;52.826;6.214;2022-09-09T15:51:41;3.58;;;1.30;;
54937;SDS011;52756;52.826;6.214;2022-09-09T15:54:08;4.68;;;1.50;;
54937;SDS011;52756;52.826;6.214;2022-09-09T15:56:37;3.88;;;1.33;;
54937;SDS011;52756;52.826;6.214;2022-09-09T15:59:03;3.08;;;1.20;;
54937;SDS011;52756;52.826;6.214;2022-09-09T16:01:28;5.28;;;1.70;;
54937;SDS011;52756;52.826;6.214;2022-09-09T16:03:56;4.55;;;1.50;;
54937;SDS011;52756;52.826;6.214;2022-09-09T16:06:23;4.82;;;1.98;;
54937;SDS011;52756;52.826;6.214;2022-09-09T16:08:50;3.60;;;1.27;;
54937;SDS011;52756;52.826;6.214;2022-09-09T16:11:29;4.88;;;1.52;;
54937;SDS011;52756;52.826;6.214;2022-09-09T16:14:00;3.80;;;1.48;;
54937;SDS011;52756;52.826;6.214;2022-09-09T16:16:26;4.68;;;1.63;;
54937;SDS011;52756;52.826;6.214;2022-09-09T16:18:54;5.75;;;2.33;;
54937;SDS011;52756;52.826;6.214;2022-09-09T16:23:54;5.60;;;1.70;;
54937;SDS011;52756;52.826;6.214;2022-09-09T16:26:20;5.13;;;1.80;;
54937;SDS011;52756;52.826;6.214;2022-09-09T16:28:46;4.22;;;1.65;;
54937;SDS011;52756;52.826;6.214;2022-09-09T16:31:16;7.60;;;2.53;;
54937;SDS011;52756;52.826;6.214;2022-09-09T16:33:45;5.90;;;2.67;;
54937;SDS011;52756;52.826;6.214;2022-09-09T16:36:14;6.55;;;2.20;;
54937;SDS011;52756;52.826;6.214;2022-09-09T16:38:41;4.47;;;2.20;;
54937;SDS011;52756;52.826;6.214;2022-09-09T16:41:11;4.15;;;2.42;;
54937;SDS011;52756;52.826;6.214;2022-09-09T16:43:38;5.65;;;2.40;;
54937;SDS011;52756;52.826;6.214;2022-09-09T16:46:27;5.13;;;2.35;;
54937;SDS011;52756;52.826;6.214;2022-09-09T16:48:52;6.32;;;2.10;;
54937;SDS011;52756;52.826;6.214;2022-09-09T16:51:21;7.47;;;2.13;;
54937;SDS011;52756;52.826;6.214;2022-09-09T16:53:49;5.57;;;2.10;;
54937;SDS011;52756;52.826;6.214;2022-09-09T16:56:16;4.25;;;1.80;;
54937;SDS011;52756;52.826;6.214;2022-09-09T16:58:48;6.22;;;2.10;;
54937;SDS011;52756;52.826;6.214;2022-09-09T17:01:20;5.95;;;1.90;;
54937;SDS011;52756;52.826;6.214;2022-09-09T17:03:54;5.80;;;2.58;;
54937;SDS011;52756;52.826;6.214;2022-09-09T17:06:20;4.43;;;1.75;;
54937;SDS011;52756;52.826;6.214;2022-09-09T17:08:46;4.07;;;2.30;;
54937;SDS011;52756;52.826;6.214;2022-09-09T17:11:17;5.10;;;1.55;;
54937;SDS011;52756;52.826;6.214;2022-09-09T17:13:47;3.88;;;1.73;;
54937;SDS011;52756;52.826;6.214;2022-09-09T17:16:14;5.20;;;2.60;;
54937;SDS011;52756;52.826;6.214;2022-09-09T17:18:41;5.10;;;1.83;;
54937;SDS011;52756;52.826;6.214;2022-09-09T17:21:09;5.60;;;1.80;;
54937;SDS011;52756;52.826;6.214;2022-09-09T17:23:38;5.82;;;2.33;;
54937;SDS011;52756;52.826;6.214;2022-09-09T17:26:08;6.47;;;1.95;;
54937;SDS011;52756;52.826;6.214;2022-09-09T17:28:36;4.82;;;1.70;;
54937;SDS011;52756;52.826;6.214;2022-09-09T17:31:03;5.65;;;2.22;;
54937;SDS011;52756;52.826;6.214;2022-09-09T17:33:35;3.33;;;1.80;;
54937;SDS011;52756;52.826;6.214;2022-09-09T17:36:07;7.25;;;2.38;;
54937;SDS011;52756;52.826;6.214;2022-09-09T17:38:44;5.20;;;2.10;;
54937;SDS011;52756;52.826;6.214;2022-09-09T17:41:22;4.90;;;2.20;;
54937;SDS011;52756;52.826;6.214;2022-09-09T17:43:49;5.40;;;2.17;;
54937;SDS011;52756;52.826;6.214;2022-09-09T17:46:20;4.57;;;2.17;;